Time;durP1;ratioP1;P1;durP2;ratioP2;P2;SDS_P1;SDS_P2;PMS_P1;PMS_P2;Temp;Humidity;BMP_temperature;BMP_pressure;BME280_temperature;BME280_humidity;BME280_pressure;Samples;Min_cycle;Max_cycle;Signal;HPM_P1;HPM_P2
2022/11/24 00:01:19;;;;;;;0.80;0.80;;;;;;;9.19;100.00;98410.47;5073326;28;20200;-68
2022/11/24 00:03:51;;;;;;;0.70;0.70;;;;;;;9.14;100.00;98412.41;5072929;28;20223;-68
2022/11/24 00:06:18;;;;;;;0.60;0.60;;;;;;;9.15;100.00;98403.81;5072707;28;20655;-68
2022/11/24 00:08:46;;;;;;;0.50;0.50;;;;;;;9.15;100.00;98419.16;5072060;28;20200;-68
2022/11/24 00:11:15;;;;;;;0.50;0.50;;;;;;;9.14;100.00;98412.41;5073238;28;20629;-68
2022/11/24 00:13:43;;;;;;;0.53;0.53;;;;;;;9.05;100.00;98410.19;5072832;28;20234;-68
2022/11/24 00:16:12;;;;;;;2.70;2.43;;;;;;;9.14;100.00;98420.09;5073221;28;20254;-68
2022/11/24 00:18:38;;;;;;;0.80;0.80;;;;;;;9.11;100.00;98420.16;5072777;28;20204;-69
2022/11/24 00:21:06;;;;;;;1.63;1.53;;;;;;;9.15;100.00;98410.66;5072794;28;20196;-68
2022/11/24 00:23:33;;;;;;;0.80;0.80;;;;;;;9.08;100.00;98417.75;5072920;28;20718;-68
2022/11/24 00:26:06;;;;;;;0.90;0.90;;;;;;;9.07;100.00;98421.22;5072901;28;20196;-68
2022/11/24 00:28:33;;;;;;;0.80;0.80;;;;;;;9.07;100.00;98418.66;5073147;28;20200;-68
2022/11/24 00:31:00;;;;;;;0.93;0.93;;;;;;;8.99;100.00;98418.09;5071275;28;20220;-68
2022/11/24 00:33:27;;;;;;;0.47;0.47;;;;;;;8.99;100.00;98423.22;5072741;28;20196;-68
2022/11/24 00:35:56;;;;;;;0.73;0.73;;;;;;;8.98;100.00;98426.69;5072665;28;20200;-68
2022/11/24 00:38:23;;;;;;;0.60;0.60;;;;;;;8.87;100.00;98414.31;5073022;28;20306;-68
2022/11/24 00:40:51;;;;;;;0.80;0.80;;;;;;;8.91;100.00;98430.38;5072491;28;20743;-68
2022/11/24 00:43:19;;;;;;;1.93;1.43;;;;;;;8.83;100.00;98417.03;5072928;28;20211;-68
2022/11/24 00:45:46;;;;;;;0.50;0.50;;;;;;;8.88;100.00;98425.38;5072247;28;20257;-68
2022/11/24 00:48:12;;;;;;;3.60;0.90;;;;;;;8.81;100.00;98419.66;5072617;28;20265;-68
2022/11/24 00:50:39;;;;;;;0.70;0.70;;;;;;;8.81;100.00;98429.06;5072358;28;20273;-68
2022/11/24 00:53:06;;;;;;;0.53;0.53;;;;;;;8.77;100.00;98422.41;5072144;28;20188;-67
2022/11/24 00:55:32;;;;;;;0.63;0.63;;;;;;;8.78;100.00;98421.50;5072004;28;20656;-68
2022/11/24 00:57:59;;;;;;;1.37;1.37;;;;;;;8.70;100.00;98423.50;5071826;28;20200;-68
2022/11/24 01:00:27;;;;;;;0.50;0.50;;;;;;;8.58;100.00;98426.53;5072524;28;20626;-68
2022/11/24 01:02:54;;;;;;;0.70;0.70;;;;;;;8.50;100.00;98429.38;5069200;28;20668;-68
2022/11/24 01:05:21;;;;;;;0.60;0.60;;;;;;;8.47;100.00;98426.94;5071046;28;20215;-68
2022/11/24 01:07:47;;;;;;;0.70;0.70;;;;;;;8.52;100.00;98432.72;5072011;28;20203;-68
2022/11/24 01:10:14;;;;;;;0.80;0.80;;;;;;;8.53;100.00;98428.44;5071453;28;20721;-68
2022/11/24 01:12:41;;;;;;;0.60;0.60;;;;;;;8.39;100.00;98427.22;5072096;28;20269;-68
2022/11/24 01:15:08;;;;;;;0.60;0.60;;;;;;;8.40;100.00;98433.97;5071868;28;20204;-68
2022/11/24 01:17:37;;;;;;;0.70;0.70;;;;;;;8.43;100.00;98427.97;5072003;28;20196;-68
2022/11/24 01:20:04;;;;;;;0.50;0.50;;;;;;;8.42;100.00;98421.19;5069352;28;20667;-68
2022/11/24 01:22:31;;;;;;;0.50;0.50;;;;;;;8.43;100.00;98420.28;5071301;28;20192;-68
2022/11/24 01:24:58;;;;;;;0.93;0.93;;;;;;;8.42;100.00;98416.91;5071791;28;20293;-68
2022/11/24 01:27:25;;;;;;;0.70;0.70;;;;;;;8.39;100.00;98427.22;5070420;28;20204;-69
2022/11/24 01:29:52;;;;;;;0.90;0.90;;;;;;;8.40;100.00;98415.31;5071612;28;20199;-68
2022/11/24 01:32:18;;;;;;;1.30;1.30;;;;;;;8.40;100.00;98417.84;5071457;28;20203;-68
2022/11/24 01:34:46;;;;;;;0.53;0.53;;;;;;;8.42;100.00;98419.47;5071240;28;20218;-68
2022/11/24 01:37:13;;;;;;;0.70;0.70;;;;;;;8.40;100.00;98423.78;5071258;28;20261;-68
2022/11/24 01:39:40;;;;;;;0.70;0.70;;;;;;;8.40;100.00;98436.53;5071810;28;20253;-68
2022/11/24 01:42:07;;;;;;;0.80;0.80;;;;;;;8.40;100.00;98439.09;5071489;28;20204;-68
2022/11/24 01:44:34;;;;;;;0.43;0.43;;;;;;;8.40;100.00;98439.09;5071048;28;20277;-68
2022/11/24 01:47:05;;;;;;;0.50;0.50;;;;;;;8.37;100.00;98431.53;5071463;28;20192;-68
2022/11/24 01:49:39;;;;;;;0.80;0.80;;;;;;;8.29;100.00;98420.78;5070423;28;20200;-68
2022/11/24 01:52:14;;;;;;;0.80;0.80;;;;;;;8.28;100.00;98429.34;5071408;28;20253;-68
2022/11/24 01:54:44;;;;;;;0.73;0.73;;;;;;;8.06;100.00;98417.38;5070527;28;20693;-68
2022/11/24 01:57:16;;;;;;;0.50;0.50;;;;;;;8.17;100.00;98439.09;5069965;28;20197;-68
2022/11/24 01:59:44;;;;;;;0.60;0.60;;;;;;;8.25;100.00;98434.53;5071138;28;20206;-68
2022/11/24 02:02:11;;;;;;;0.80;0.80;;;;;;;8.23;100.00;98445.69;5070975;28;20261;-68
2022/11/24 02:04:39;;;;;;;0.77;0.77;;;;;;;8.22;100.00;98444.84;5069864;28;20220;-68
2022/11/24 02:07:07;;;;;;;1.10;1.10;;;;;;;8.22;100.00;98444.84;5070706;28;20200;-68
2022/11/24 02:09:41;;;;;;;1.00;1.00;;;;;;;8.21;100.00;98448.28;5068253;28;20200;-68
2022/11/24 02:12:09;;;;;;;0.43;0.43;;;;;;;8.20;100.00;98451.75;5070893;28;20257;-68
2022/11/24 02:14:38;;;;;;;1.43;1.33;;;;;;;8.18;100.00;98442.44;5070535;28;20249;-68
2022/11/24 02:17:05;;;;;;;1.30;1.30;;;;;;;8.17;100.00;98441.63;5070813;28;20291;-68
2022/11/24 02:19:45;;;;;;;1.00;1.00;;;;;;;8.18;100.00;98438.19;5071133;28;20239;-69
2022/11/24 02:22:16;;;;;;;0.90;0.90;;;;;;;8.15;100.00;98438.28;5066653;28;20212;-68
2022/11/24 02:24:49;;;;;;;0.73;0.73;;;;;;;8.12;100.00;98446.06;5070678;28;20216;-68
2022/11/24 02:27:18;;;;;;;0.93;0.93;;;;;;;8.08;100.00;98441.13;5070872;28;20204;-68
2022/11/24 02:29:46;;;;;;;0.50;0.50;;;;;;;7.91;100.00;98421.31;5070668;28;20204;-68
2022/11/24 02:32:14;;;;;;;0.90;0.90;;;;;;;7.99;100.00;98444.81;5070805;28;20627;-68
2022/11/24 02:34:40;;;;;;;0.90;0.90;;;;;;;7.94;100.00;98444.16;5069931;28;20192;-68
2022/11/24 02:37:07;;;;;;;0.80;0.80;;;;;;;7.88;100.00;98444.38;5070878;28;20204;-68
2022/11/24 02:39:35;;;;;;;0.50;0.50;;;;;;;7.84;100.00;98442.81;5070487;28;20265;-68
2022/11/24 02:42:06;;;;;;;0.60;0.60;;;;;;;7.76;100.00;98434.56;5070788;28;20195;-68
2022/11/24 02:44:39;;;;;;;0.80;0.80;;;;;;;7.81;100.00;98442.91;5070207;28;20254;-68
2022/11/24 02:47:08;;;;;;;2.37;2.37;;;;;;;7.78;100.00;98436.22;5070064;28;20208;-68
2022/11/24 02:49:35;;;;;;;0.73;0.73;;;;;;;7.76;100.00;98439.66;5064595;28;20261;-68
2022/11/24 02:52:02;;;;;;;1.07;1.07;;;;;;;7.78;100.00;98443.03;5069477;28;20726;-68
2022/11/24 02:54:28;;;;;;;0.73;0.73;;;;;;;7.73;100.00;98429.56;5070189;28;20196;-68
2022/11/24 02:56:56;;;;;;;0.67;0.67;;;;;;;7.78;100.00;98448.13;5068280;28;20246;-68
2022/11/24 02:59:23;;;;;;;0.60;0.60;;;;;;;7.69;100.00;98449.25;5068348;28;20238;-68
2022/11/24 03:01:51;;;;;;;0.60;0.60;;;;;;;7.59;100.00;98447.91;5066946;28;20253;-68
2022/11/24 03:04:17;;;;;;;0.63;0.63;;;;;;;7.65;100.00;98441.78;5069603;28;20757;-68
2022/11/24 03:06:44;;;;;;;0.70;0.70;;;;;;;7.64;100.00;98450.31;5070116;28;20196;-68
2022/11/24 03:09:11;;;;;;;0.80;0.80;;;;;;;7.66;100.00;98448.53;5069854;28;20276;-69
2022/11/24 03:11:38;;;;;;;0.60;0.60;;;;;;;7.64;100.00;98450.31;5069480;28;20680;-68
2022/11/24 03:14:05;;;;;;;0.60;0.60;;;;;;;7.51;100.00;98441.38;5068363;28;20203;-68
2022/11/24 03:16:32;;;;;;;0.57;0.57;;;;;;;7.48;100.00;98433.84;5070081;28;20212;-68
2022/11/24 03:19:04;;;;;;;0.70;0.70;;;;;;;7.51;100.00;98449.88;5069397;28;20285;-68
2022/11/24 03:21:31;;;;;;;0.73;0.73;;;;;;;7.52;100.00;98455.81;5069150;28;20219;-68
2022/11/24 03:23:58;;;;;;;0.60;0.60;;;;;;;7.52;100.00;98460.91;5073155;28;20257;-69
2022/11/24 03:26:25;;;;;;;0.60;0.60;;;;;;;7.52;100.00;98458.38;5074265;28;20242;-68
2022/11/24 03:28:54;;;;;;;0.80;0.80;;;;;;;7.53;100.00;98457.50;5073853;28;20196;-68
2022/11/24 03:31:21;;;;;;;0.60;0.60;;;;;;;7.53;100.00;98458.28;5073494;28;20283;-68
2022/11/24 03:33:48;;;;;;;3.70;1.07;;;;;;;7.49;100.00;98464.41;5073316;28;20204;-68
2022/11/24 03:36:16;;;;;;;0.60;0.60;;;;;;;7.45;100.00;98459.44;5073620;28;20192;-68
2022/11/24 03:38:43;;;;;;;0.50;0.50;;;;;;;7.45;100.00;98465.38;5073683;28;20200;-68
2022/11/24 03:41:10;;;;;;;0.60;0.60;;;;;;;7.43;100.00;98466.31;5073651;28;20760;-68
2022/11/24 03:43:37;;;;;;;0.60;0.60;;;;;;;7.38;100.00;98469.00;5073460;28;20196;-68
2022/11/24 03:46:04;;;;;;;0.50;0.50;;;;;;;7.34;100.00;98468.25;5073305;28;20629;-68
2022/11/24 03:48:31;;;;;;;0.57;0.57;;;;;;;7.26;100.00;98465.16;5072873;28;20278;-68
2022/11/24 03:50:59;;;;;;;0.60;0.60;;;;;;;7.32;100.00;98464.94;5073178;28;20291;-68
2022/11/24 03:53:30;;;;;;;0.80;0.80;;;;;;;7.24;100.00;98471.97;5072217;28;20731;-68
2022/11/24 03:55:57;;;;;;;0.60;0.60;;;;;;;7.25;100.00;98473.66;5069637;28;20259;-68
2022/11/24 03:58:24;;;;;;;0.50;0.50;;;;;;;7.15;100.00;98457.00;5071146;28;20219;-68
2022/11/24 04:00:53;;;;;;;0.70;0.70;;;;;;;7.16;100.00;98457.81;5072937;28;20617;-68
2022/11/24 04:03:20;;;;;;;0.53;0.53;;;;;;;7.24;100.00;98471.16;5073491;28;20253;-68
2022/11/24 04:05:47;;;;;;;1.00;1.00;;;;;;;7.28;100.00;98473.56;5073277;28;20611;-68
2022/11/24 04:08:14;;;;;;;0.43;0.43;;;;;;;7.33;100.00;98481.06;5073420;28;20253;-68
2022/11/24 04:10:43;;;;;;;0.53;0.53;;;;;;;7.35;100.00;98479.31;5072563;28;20207;-68
2022/11/24 04:13:14;;;;;;;0.50;0.50;;;;;;;7.40;100.00;98480.81;5073353;28;20207;-68
2022/11/24 04:15:42;;;;;;;0.57;0.57;;;;;;;7.44;100.00;98493.47;5073209;28;20205;-68
2022/11/24 04:18:10;;;;;;;0.90;0.90;;;;;;;7.47;100.00;98496.75;5072524;28;20253;-68
2022/11/24 04:20:37;;;;;;;1.17;1.17;;;;;;;7.50;100.00;98493.25;5072801;28;20196;-68
2022/11/24 04:23:04;;;;;;;0.70;0.70;;;;;;;7.52;100.00;98492.34;5072545;28;20203;-68
2022/11/24 04:25:31;;;;;;;0.70;0.70;;;;;;;7.58;100.00;98491.31;5072652;28;20691;-68
2022/11/24 04:27:59;;;;;;;1.20;1.20;;;;;;;7.63;100.00;98489.44;5070626;28;20679;-68
2022/11/24 04:30:29;;;;;;;0.50;0.50;;;;;;;7.59;100.00;98477.69;5072686;28;20207;-68
2022/11/24 04:32:56;;;;;;;0.90;0.90;;;;;;;7.71;100.00;98498.50;5071811;28;20291;-68
2022/11/24 04:35:23;;;;;;;0.77;0.77;;;;;;;7.74;100.00;98493.31;5072470;28;20634;-68
2022/11/24 04:37:49;;;;;;;0.60;0.60;;;;;;;7.76;100.00;98499.19;5072621;28;20668;-68
2022/11/24 04:40:17;;;;;;;0.67;0.67;;;;;;;7.71;100.00;98474.72;5072625;28;20667;-68
2022/11/24 04:42:44;;;;;;;0.70;0.70;;;;;;;7.76;100.00;98499.19;5072219;28;20211;-68
2022/11/24 04:45:12;;;;;;;0.67;0.67;;;;;;;7.72;100.00;98494.25;5072523;28;20211;-68
2022/11/24 04:47:39;;;;;;;0.50;0.50;;;;;;;7.76;100.00;98496.63;5072334;28;20713;-68
2022/11/24 04:50:07;;;;;;;0.63;0.63;;;;;;;7.75;100.00;98494.16;5071943;28;20226;-68
2022/11/24 04:52:34;;;;;;;0.60;0.60;;;;;;;7.75;100.00;98494.16;5071425;28;20222;-68
2022/11/24 04:55:01;;;;;;;0.60;0.60;;;;;;;7.72;100.00;98500.16;5069709;28;20204;-68
2022/11/24 04:57:27;;;;;;;0.50;0.50;;;;;;;7.72;100.00;98510.38;5071118;28;20204;-68
2022/11/24 04:59:54;;;;;;;0.50;0.50;;;;;;;7.69;100.00;98509.66;5071649;28;20618;-68
2022/11/24 05:02:23;;;;;;;0.77;0.77;;;;;;;7.70;100.00;98516.41;5071096;28;20712;-68
2022/11/24 05:04:50;;;;;;;0.50;0.50;;;;;;;7.65;100.00;98513.19;5071435;28;20250;-68
2022/11/24 05:07:18;;;;;;;0.63;0.63;;;;;;;7.67;100.00;98527.56;5069151;28;20214;-68
2022/11/24 05:12:30;;;;;;;1.07;1.07;;;;;;;7.67;100.00;98534.38;5071481;28;20595;-68
2022/11/24 05:14:58;;;;;;;0.60;0.60;;;;;;;7.63;100.00;98527.69;5070406;28;20282;-68
2022/11/24 05:17:29;;;;;;;0.60;0.60;;;;;;;7.61;100.00;98526.91;5071686;28;20269;-68
2022/11/24 05:19:56;;;;;;;0.70;0.70;;;;;;;7.59;100.00;98526.13;5071565;28;20200;-68
2022/11/24 05:22:23;;;;;;;0.50;0.50;;;;;;;7.53;100.00;98509.28;5070235;28;20199;-68
2022/11/24 05:24:50;;;;;;;0.70;0.70;;;;;;;7.60;100.00;98535.44;5068948;28;20687;-68
2022/11/24 05:27:16;;;;;;;0.70;0.70;;;;;;;7.58;100.00;98521.91;5070363;28;20261;-68
2022/11/24 05:29:43;;;;;;;0.60;0.60;;;;;;;7.56;100.00;98523.69;5071658;28;20196;-68
2022/11/24 05:32:10;;;;;;;0.60;0.60;;;;;;;7.57;100.00;98526.19;5071166;28;20208;-68
2022/11/24 05:34:38;;;;;;;0.80;0.80;;;;;;;7.56;100.00;98523.69;5071412;28;20196;-68
2022/11/24 05:37:05;;;;;;;0.70;0.70;;;;;;;7.55;100.00;98530.50;5071457;28;20661;-68
2022/11/24 05:39:32;;;;;;;0.77;0.77;;;;;;;7.53;100.00;98529.69;5070463;28;20659;-68
2022/11/24 05:41:59;;;;;;;0.63;0.63;;;;;;;7.51;100.00;98525.53;5071301;28;20215;-68
2022/11/24 05:44:26;;;;;;;1.20;1.20;;;;;;;7.52;100.00;98522.94;5070840;28;20348;-68
2022/11/24 05:46:53;;;;;;;0.90;0.90;;;;;;;7.51;100.00;98530.63;5070877;28;20196;-68
2022/11/24 05:49:20;;;;;;;2.17;1.27;;;;;;;7.53;100.00;98528.88;5069447;28;20204;-68
2022/11/24 05:51:48;;;;;;;0.60;0.60;;;;;;;7.50;100.00;98531.50;5069696;28;20227;-68
2022/11/24 05:54:15;;;;;;;0.50;0.50;;;;;;;7.52;100.00;98524.66;5068604;28;20212;-68
2022/11/24 05:56:42;;;;;;;0.60;0.60;;;;;;;7.53;100.00;98528.88;5070860;28;20203;-68
2022/11/24 05:59:08;;;;;;;0.57;0.57;;;;;;;7.52;100.00;98534.88;5071002;28;20195;-68
2022/11/24 06:01:35;;;;;;;0.60;0.60;;;;;;;7.55;100.00;98544.97;5071062;28;20277;-68
2022/11/24 06:04:02;;;;;;;0.60;0.60;;;;;;;7.57;100.00;98545.75;5070450;28;20664;-68
2022/11/24 06:06:28;;;;;;;0.80;0.80;;;;;;;7.57;100.00;98551.69;5069958;28;20216;-68
2022/11/24 06:08:57;;;;;;;0.70;0.70;;;;;;;7.53;100.00;98539.09;5070844;28;20207;-68
2022/11/24 06:11:23;;;;;;;0.83;0.83;;;;;;;7.61;100.00;98553.25;5069952;28;20660;-68
2022/11/24 06:13:50;;;;;;;0.60;0.60;;;;;;;7.62;100.00;98554.09;5070962;28;20208;-68
2022/11/24 06:16:17;;;;;;;1.17;1.07;;;;;;;7.62;100.00;98559.19;5070747;28;20742;-68
2022/11/24 06:18:44;;;;;;;0.60;0.60;;;;;;;7.62;100.00;98559.19;5067395;28;20203;-68
2022/11/24 06:21:11;;;;;;;0.50;0.50;;;;;;;7.69;100.00;98558.13;5069690;28;20614;-68
2022/11/24 06:23:37;;;;;;;0.57;0.57;;;;;;;7.72;100.00;98560.56;5070016;28;20203;-68
2022/11/24 06:26:06;;;;;;;0.50;0.50;;;;;;;7.69;100.00;98565.78;5069353;28;20700;-68
2022/11/24 06:28:33;;;;;;;0.67;0.67;;;;;;;7.73;100.00;98572.44;5069873;28;20200;-68
2022/11/24 06:31:03;;;;;;;0.50;0.50;;;;;;;7.75;100.00;98578.34;5068271;28;20208;-67
2022/11/24 06:33:33;;;;;;;0.43;0.43;;;;;;;7.72;100.00;98565.69;5067555;28;20204;-68
2022/11/24 06:36:02;;;;;;;0.73;0.73;;;;;;;7.75;100.00;98570.69;5068679;28;20204;-68
2022/11/24 06:38:29;;;;;;;0.60;0.60;;;;;;;7.81;100.00;98580.69;5068758;28;20207;-68
2022/11/24 06:41:00;;;;;;;0.57;0.57;;;;;;;7.82;100.00;98582.34;5068289;28;20207;-68
2022/11/24 06:43:30;;;;;;;1.07;1.07;;;;;;;7.79;100.00;98583.28;5067335;28;20196;-68
2022/11/24 06:45:57;;;;;;;0.50;0.50;;;;;;;7.81;100.00;98585.78;5067547;28;20224;-67
2022/11/24 06:48:25;;;;;;;0.57;0.57;;;;;;;7.75;100.00;98565.56;5067111;28;20691;-67
2022/11/24 06:50:52;;;;;;;0.60;0.60;;;;;;;7.87;100.00;98593.25;5066482;28;20235;-69
2022/11/24 06:53:23;;;;;;;0.60;0.60;;;;;;;7.78;100.00;98570.59;5067614;28;20208;-67
2022/11/24 06:55:50;;;;;;;0.60;0.60;;;;;;;7.93;100.00;98587.94;5069521;28;20262;-67
2022/11/24 06:58:17;;;;;;;0.50;0.50;;;;;;;7.92;100.00;98588.81;5072961;28;20200;-69
2022/11/24 07:00:45;;;;;;;0.50;0.50;;;;;;;8.01;100.00;98585.97;5073690;28;20204;-69
2022/11/24 07:03:15;;;;;;;0.60;0.60;;;;;;;8.00;100.00;98591.97;5072586;28;20238;-67
2022/11/24 07:05:42;;;;;;;0.60;0.60;;;;;;;8.05;100.00;98600.28;5070766;28;20663;-68
2022/11/24 07:08:09;;;;;;;0.60;0.60;;;;;;;8.09;100.00;98595.91;5070286;28;20211;-68
2022/11/24 07:10:36;;;;;;;0.40;0.40;;;;;;;8.11;100.00;98589.88;5070283;28;20356;-67
2022/11/24 07:13:03;;;;;;;0.60;0.60;;;;;;;8.16;100.00;98593.13;5072429;28;20200;-68
2022/11/24 07:15:30;;;;;;;0.40;0.40;;;;;;;8.16;100.00;98580.34;5072755;28;20290;-68
2022/11/24 07:17:58;;;;;;;0.60;0.60;;;;;;;8.27;100.00;98580.81;5072795;28;20204;-68
2022/11/24 07:20:26;;;;;;;1.17;1.17;;;;;;;8.39;100.00;98590.66;5071504;28;20257;-68
2022/11/24 07:22:56;;;;;;;0.50;0.50;;;;;;;8.46;100.00;98590.47;5072569;28;20274;-68
2022/11/24 07:25:22;;;;;;;0.40;0.40;;;;;;;8.55;100.00;98590.97;5068264;28;20220;-68
2022/11/24 07:27:49;;;;;;;0.50;0.50;;;;;;;8.69;100.00;98593.03;5067361;28;20269;-67
2022/11/24 07:30:17;;;;;;;0.50;0.50;;;;;;;8.77;100.00;98591.03;5072449;28;20211;-67
2022/11/24 07:32:43;;;;;;;0.47;0.47;;;;;;;8.78;100.00;98572.28;5072887;28;20253;-66
2022/11/24 07:35:12;;;;;;;0.53;0.53;;;;;;;9.01;100.00;98590.16;5069858;28;20818;-68
2022/11/24 07:37:38;;;;;;;0.40;0.40;;;;;;;9.17;100.00;98590.41;5071638;28;20200;-67
2022/11/24 07:40:06;;;;;;;0.50;0.50;;;;;;;9.23;100.00;98591.03;5066109;28;20583;-67
2022/11/24 07:42:33;;;;;;;0.50;0.50;;;;;;;9.39;100.00;98592.13;5070582;28;20322;-67
2022/11/24 07:45:00;;;;;;;0.50;0.50;;;;;;;9.53;100.00;98588.19;5069455;28;20617;-67
2022/11/24 07:47:27;;;;;;;0.80;0.80;;;;;;;9.72;100.00;98594.25;5071256;28;20200;-67
2022/11/24 07:49:54;;;;;;;0.57;0.57;;;;;;;9.89;100.00;98594.41;5071998;28;20203;-67
2022/11/24 07:52:25;;;;;;;0.60;0.60;;;;;;;10.08;100.00;98603.00;5070285;28;20637;-67
2022/11/24 07:54:52;;;;;;;0.47;0.47;;;;;;;10.20;100.00;98601.72;5073569;28;20575;-68
2022/11/24 07:57:19;;;;;;;0.60;0.60;;;;;;;10.23;100.00;98588.78;5071472;28;20210;-67
2022/11/24 07:59:45;;;;;;;0.50;0.50;;;;;;;10.28;100.00;98580.00;5070222;28;20199;-67
2022/11/24 08:02:13;;;;;;;0.50;0.50;;;;;;;10.27;100.00;98557.84;5071220;28;20208;-67
2022/11/24 08:04:39;;;;;;;0.40;0.40;;;;;;;10.66;100.00;98600.59;5070087;28;20208;-67
2022/11/24 08:07:06;;;;;;;0.50;0.50;;;;;;;10.68;100.00;98602.19;5072326;28;20216;-67
2022/11/24 08:09:34;;;;;;;0.50;0.50;;;;;;;10.79;100.00;98612.00;5069091;28;20200;-67
2022/11/24 08:12:01;;;;;;;0.50;0.50;;;;;;;10.98;100.00;98602.59;5072940;28;20211;-68
2022/11/24 08:14:28;;;;;;;0.57;0.57;;;;;;;11.01;100.00;98592.19;5070322;28;20227;-67
2022/11/24 08:16:55;;;;;;;0.50;0.50;;;;;;;11.15;100.00;98609.53;5069308;28;20200;-68
2022/11/24 08:19:22;;;;;;;0.50;0.50;;;;;;;11.34;100.00;98605.25;5071070;28;20945;-66
2022/11/24 08:21:49;;;;;;;0.80;0.80;;;;;;;11.40;100.00;98605.78;5069232;28;20219;-68
2022/11/24 08:24:15;;;;;;;0.67;0.67;;;;;;;11.52;100.00;98601.81;5072755;28;20215;-68
2022/11/24 08:26:44;;;;;;;0.50;0.50;;;;;;;11.64;100.00;98603.81;5068772;28;20592;-68
2022/11/24 08:29:10;;;;;;;0.50;0.50;;;;;;;11.73;100.00;98597.44;5071883;28;20196;-68
2022/11/24 08:31:39;;;;;;;0.60;0.60;;;;;;;11.87;100.00;98606.16;5069342;28;20649;-68
2022/11/24 08:34:06;;;;;;;0.80;0.80;;;;;;;11.99;100.00;98605.53;5072156;28;20207;-67
2022/11/24 08:36:34;;;;;;;0.40;0.40;;;;;;;12.08;100.00;98610.22;5070489;28;20197;-67
2022/11/24 08:39:01;;;;;;;0.77;0.77;;;;;;;12.12;100.00;98603.22;5072299;28;20196;-67
2022/11/24 08:41:28;;;;;;;0.53;0.53;;;;;;;12.29;100.00;98618.63;5071167;28;20257;-68
2022/11/24 08:43:56;;;;;;;0.93;0.93;;;;;;;12.40;100.00;98612.97;5072074;28;20711;-67
2022/11/24 08:46:23;;;;;;;0.60;0.60;;;;;;;12.49;100.00;98613.34;5069291;28;20224;-67
2022/11/24 08:48:51;;;;;;;0.60;0.60;;;;;;;12.54;100.00;98613.94;5070523;28;20643;-68
2022/11/24 08:51:20;;;;;;;0.50;0.50;;;;;;;12.63;100.00;98613.47;5070167;28;20224;-68
2022/11/24 08:53:47;;;;;;;0.40;0.40;;;;;;;12.82;100.00;98613.38;5071788;28;20253;-68
2022/11/24 08:56:14;;;;;;;0.60;0.60;;;;;;;12.94;100.00;98606.75;5070618;28;20253;-67
2022/11/24 08:58:42;;;;;;;0.57;0.57;;;;;;;13.02;100.00;98605.41;5070437;28;20227;-67
2022/11/24 09:01:11;;;;;;;0.50;0.50;;;;;;;13.17;100.00;98592.69;5071603;28;20200;-68
2022/11/24 09:03:39;;;;;;;0.43;0.43;;;;;;;13.17;100.00;98588.38;5071475;28;20254;-66
2022/11/24 09:06:07;;;;;;;0.43;0.43;;;;;;;13.47;100.00;98596.19;5071544;28;20216;-65
2022/11/24 09:08:34;;;;;;;0.60;0.60;;;;;;;13.60;98.45;98598.00;5070866;28;20227;-69
2022/11/24 09:11:04;;;;;;;0.70;0.70;;;;;;;13.71;97.40;98597.41;5071840;28;20629;-67
2022/11/24 09:13:31;;;;;;;0.50;0.50;;;;;;;13.83;95.63;98598.50;5072303;28;20564;-66
2022/11/24 09:16:03;;;;;;;0.90;0.90;;;;;;;14.00;95.32;98598.34;5072182;28;20579;-65
2022/11/24 09:18:31;;;;;;;0.50;0.50;;;;;;;14.11;95.67;98602.00;5071919;28;20249;-65
2022/11/24 09:21:10;;;;;;;0.80;0.80;;;;;;;14.24;95.67;98594.38;5064489;28;20208;-66
2022/11/24 09:23:37;;;;;;;0.47;0.47;;;;;;;14.39;94.43;98593.53;5066057;28;20208;-66
2022/11/24 09:26:05;;;;;;;0.70;0.70;;;;;;;14.52;93.26;98594.47;5070254;28;20215;-67
2022/11/24 09:28:32;;;;;;;0.70;0.70;;;;;;;14.64;93.21;98588.56;5070822;28;20197;-66
2022/11/24 09:31:01;;;;;;;0.60;0.60;;;;;;;14.85;91.95;98591.63;5071597;28;20196;-66
2022/11/24 09:33:28;;;;;;;0.63;0.63;;;;;;;14.95;90.76;98576.41;5071103;28;20221;-65
2022/11/24 09:35:56;;;;;;;0.60;0.60;;;;;;;15.01;89.39;98587.19;5069905;28;20197;-67
2022/11/24 09:38:23;;;;;;;0.40;0.40;;;;;;;14.98;88.81;98581.41;5071089;28;20297;-67
2022/11/24 09:40:50;;;;;;;0.40;0.40;;;;;;;14.98;87.67;98595.13;5070990;28;20207;-67
2022/11/24 09:43:26;;;;;;;0.53;0.53;;;;;;;14.91;87.86;98590.44;5071286;28;20205;-69
2022/11/24 09:45:59;;;;;;;0.90;0.90;;;;;;;14.90;87.94;98583.59;5068257;28;20208;-68
2022/11/24 09:48:30;;;;;;;0.50;0.50;;;;;;;14.90;88.16;98581.00;5070503;28;20196;-69
2022/11/24 09:51:01;;;;;;;0.40;0.40;;;;;;;14.93;88.46;98583.41;5068522;28;20232;-67
2022/11/24 09:53:34;;;;;;;0.50;0.50;;;;;;;14.98;86.93;98586.56;5069743;28;20614;-67
2022/11/24 09:56:05;;;;;;;1.07;1.07;;;;;;;14.99;85.84;98583.88;5070760;28;20223;-67
2022/11/24 09:58:40;;;;;;;0.47;0.47;;;;;;;15.02;86.17;98577.72;5068461;28;20197;-67
2022/11/24 10:01:15;;;;;;;0.57;0.57;;;;;;;14.98;86.35;98550.44;5069280;28;20246;-68
2022/11/24 10:03:43;;;;;;;0.50;0.50;;;;;;;15.18;87.36;98568.09;5070435;28;20227;-69
2022/11/24 10:06:21;;;;;;;0.50;0.50;;;;;;;15.27;88.62;98548.63;5069386;28;20220;-68
2022/11/24 10:09:18;;;;;;;0.40;0.40;;;;;;;15.51;86.31;98560.84;5069390;28;20211;-68
2022/11/24 10:11:51;;;;;;;0.60;0.60;;;;;;;15.58;86.10;98549.19;5042667;28;20201;-68
2022/11/24 10:14:40;;;;;;;0.50;0.50;;;;;;;15.63;83.46;98544.56;5071118;28;20207;-67
2022/11/24 10:17:18;;;;;;;0.47;0.47;;;;;;;15.79;82.02;98559.09;5071326;28;20250;-67
2022/11/24 10:19:50;;;;;;;0.60;0.60;;;;;;;15.82;81.55;98559.72;5070746;28;20218;-68
2022/11/24 10:22:31;;;;;;;0.60;0.60;;;;;;;15.98;82.23;98554.38;5070952;28;20203;-68
2022/11/24 10:25:21;;;;;;;0.50;0.50;;;;;;;15.97;80.65;98563.03;5070844;28;20204;-68
2022/11/24 10:27:50;;;;;;;0.50;0.50;;;;;;;15.98;79.67;98564.72;5070835;28;20273;-69
2022/11/24 10:30:20;;;;;;;0.40;0.40;;;;;;;15.98;79.44;98559.53;5068964;28;20215;-68
2022/11/24 10:32:49;;;;;;;0.47;0.47;;;;;;;16.00;81.12;98568.84;5065638;28;20205;-69
2022/11/24 10:35:19;;;;;;;0.40;0.40;;;;;;;16.05;80.21;98563.38;5070237;28;20206;-68
2022/11/24 10:37:57;;;;;;;0.40;0.40;;;;;;;16.04;79.64;98538.47;5070194;28;20210;-69
2022/11/24 10:40:33;;;;;;;0.50;0.50;;;;;;;16.20;79.23;98560.63;5069637;28;20216;-69
2022/11/24 10:43:00;;;;;;;0.43;0.43;;;;;;;16.18;79.46;98556.47;5065485;28;20722;-69
2022/11/24 10:45:28;;;;;;;0.50;0.50;;;;;;;16.11;79.44;98555.22;5069300;28;20212;-68
2022/11/24 10:47:57;;;;;;;0.40;0.40;;;;;;;16.09;78.53;98563.06;5067747;28;20682;-69
2022/11/24 10:50:26;;;;;;;0.50;0.50;;;;;;;16.09;79.79;98559.69;5066354;28;20294;-69
2022/11/24 10:53:03;;;;;;;0.60;0.60;;;;;;;16.10;79.40;98558.72;5069742;28;20665;-69
2022/11/24 10:55:57;;;;;;;0.50;0.50;;;;;;;16.16;79.65;98571.25;5068327;28;20208;-69
2022/11/24 10:58:26;;;;;;;1.40;0.80;;;;;;;16.17;79.89;98565.16;5068803;28;20234;-69
2022/11/24 11:00:53;;;;;;;0.60;0.60;;;;;;;16.39;80.49;98559.38;5069810;28;20198;-69
2022/11/24 11:03:22;;;;;;;0.60;0.60;;;;;;;16.59;78.71;98566.66;5069230;28;20215;-69
2022/11/24 11:05:52;;;;;;;0.40;0.40;;;;;;;16.73;77.32;98562.22;5069813;28;20253;-69
2022/11/24 11:08:26;;;;;;;0.40;0.40;;;;;;;16.82;76.74;98557.34;5068614;28;20200;-69
2022/11/24 11:11:13;;;;;;;0.40;0.40;;;;;;;16.95;77.91;98558.16;5069924;28;20227;-67
2022/11/24 11:13:50;;;;;;;0.53;0.53;;;;;;;17.04;76.21;98557.50;5068031;28;20289;-71
2022/11/24 11:16:32;;;;;;;0.67;0.67;;;;;;;16.98;74.92;98547.56;5070064;28;20187;-68
2022/11/24 11:19:02;;;;;;;0.40;0.40;;;;;;;16.91;74.98;98561.88;5069919;28;20545;-68
2022/11/24 11:21:33;;;;;;;0.60;0.60;;;;;;;16.79;73.46;98558.38;5065817;28;20228;-67
2022/11/24 11:24:03;;;;;;;0.50;0.50;;;;;;;16.82;72.02;98565.09;5061295;28;20212;-68
2022/11/24 11:26:38;;;;;;;0.60;0.60;;;;;;;16.85;71.64;98564.88;5069699;28;20245;-69
2022/11/24 11:29:15;;;;;;;0.50;0.50;;;;;;;17.03;73.51;98561.00;5070066;28;20734;-68
2022/11/24 11:31:51;;;;;;;0.50;0.50;;;;;;;17.19;70.87;98562.44;5070225;28;20218;-68
2022/11/24 11:34:19;;;;;;;0.60;0.60;;;;;;;17.18;71.23;98565.16;5070251;28;20207;-68
2022/11/24 11:36:49;;;;;;;0.50;0.50;;;;;;;17.21;69.13;98551.97;5070207;28;20208;-67
2022/11/24 11:39:24;;;;;;;0.50;0.50;;;;;;;17.17;70.39;98573.84;5070221;28;20667;-67
2022/11/24 11:42:00;;;;;;;0.60;0.60;;;;;;;17.17;70.55;98564.31;5069849;28;20685;-67